createdAt,value
2022-08-11T00:01:54.852Z,17.80
2022-08-11T00:04:35.836Z,17.80
2022-08-11T00:07:04.473Z,17.70
2022-08-11T00:09:39.474Z,17.70
2022-08-11T00:12:18.436Z,17.60
2022-08-11T00:14:55.074Z,17.70
2022-08-11T00:17:29.315Z,17.60
2022-08-11T00:20:20.368Z,17.50
2022-08-11T00:22:48.417Z,17.50
2022-08-11T00:25:21.750Z,17.50
2022-08-11T00:27:49.448Z,17.30
2022-08-11T00:30:16.855Z,17.30
2022-08-11T00:32:54.616Z,17.20
2022-08-11T00:35:54.135Z,17.20
2022-08-11T00:38:16.448Z,17.10
2022-08-11T00:40:53.173Z,17.00
2022-08-11T00:43:43.343Z,17.10
2022-08-11T00:46:51.474Z,17.10
2022-08-11T00:49:43.584Z,17.00
2022-08-11T00:53:00.057Z,16.90
2022-08-11T00:56:06.069Z,17.10
2022-08-11T00:59:34.592Z,17.10
2022-08-11T01:02:56.549Z,16.90
2022-08-11T01:05:56.935Z,16.90
2022-08-11T01:09:22.405Z,16.90
2022-08-11T01:12:40.826Z,16.90
2022-08-11T01:16:06.930Z,17.00
2022-08-11T01:19:17.401Z,17.00
2022-08-11T01:22:37.105Z,16.80
2022-08-11T01:25:57.147Z,17.00
2022-08-11T01:29:09.322Z,17.00
2022-08-11T01:32:40.881Z,17.00
2022-08-11T01:35:57.285Z,17.00
2022-08-11T01:39:01.806Z,17.00
2022-08-11T01:48:13.527Z,16.60
2022-08-11T01:57:42.181Z,16.60
2022-08-11T02:00:16.273Z,16.50
2022-08-11T02:03:29.607Z,16.50
2022-08-11T02:06:44.571Z,16.40
2022-08-11T02:12:52.766Z,16.40
2022-08-11T02:15:36.471Z,16.40
2022-08-11T02:18:52.825Z,16.40
2022-08-11T02:21:48.190Z,16.20
2022-08-11T02:24:30.273Z,16.20
2022-08-11T02:27:06.712Z,16.20
2022-08-11T02:29:47.503Z,16.10
2022-08-11T02:32:43.078Z,16.10
2022-08-11T02:35:45.813Z,16.00
2022-08-11T02:38:37.740Z,16.00
2022-08-11T02:41:56.713Z,16.10
2022-08-11T02:45:24.700Z,16.00
2022-08-11T02:48:59.584Z,16.00
2022-08-11T02:52:14.147Z,15.90
2022-08-11T02:55:48.814Z,15.90
2022-08-11T02:59:22.245Z,15.60
2022-08-11T03:02:00.647Z,15.50
2022-08-11T03:04:49.911Z,15.60
2022-08-11T03:07:35.597Z,15.70
2022-08-11T03:10:23.441Z,15.70
2022-08-11T03:13:28.913Z,15.70
2022-08-11T03:16:43.128Z,15.80
2022-08-11T03:19:34.658Z,15.80
2022-08-11T03:22:32.857Z,15.80
2022-08-11T03:25:40.145Z,15.80
2022-08-11T03:28:25.135Z,15.70
2022-08-11T03:31:25.100Z,15.70
2022-08-11T03:34:07.130Z,15.70
2022-08-11T03:37:47.951Z,15.60
2022-08-11T03:41:54.641Z,15.50
2022-08-11T03:44:43.134Z,15.50
2022-08-11T03:47:55.427Z,15.60
2022-08-11T03:50:55.041Z,15.50
2022-08-11T03:53:55.883Z,15.40
2022-08-11T03:57:00.625Z,15.50
2022-08-11T04:00:12.261Z,15.30
2022-08-11T04:03:17.961Z,15.40
2022-08-11T04:06:35.394Z,15.60
2022-08-11T04:16:10.890Z,15.60
2022-08-11T04:32:31.706Z,15.60
2022-08-11T04:35:50.156Z,15.60
2022-08-11T04:38:49.340Z,15.50
2022-08-11T04:42:32.860Z,15.60
2022-08-11T04:45:38.940Z,15.90
2022-08-11T04:49:06.405Z,15.80
2022-08-11T04:52:19.443Z,15.60
2022-08-11T04:55:29.560Z,15.50
2022-08-11T04:58:47.897Z,15.40
2022-08-11T05:01:56.310Z,15.40
2022-08-11T05:18:18.812Z,15.60
2022-08-11T05:21:11.584Z,15.60
2022-08-11T05:24:06.438Z,15.80
2022-08-11T05:27:04.270Z,15.90
2022-08-11T05:30:00.755Z,16.00
2022-08-11T05:32:58.047Z,16.10
2022-08-11T05:36:01.858Z,16.20
2022-08-11T05:38:47.170Z,16.30
2022-08-11T05:41:33.867Z,16.20
2022-08-11T05:44:22.485Z,16.30
2022-08-11T05:47:09.221Z,16.40
2022-08-11T05:49:57.792Z,16.40
2022-08-11T05:52:55.427Z,16.50
2022-08-11T05:56:02.108Z,16.70
2022-08-11T05:58:42.684Z,16.80
2022-08-11T06:01:13.143Z,17.10
2022-08-11T06:04:03.314Z,17.20
2022-08-11T06:06:30.996Z,17.50
2022-08-11T06:08:59.362Z,17.70
2022-08-11T06:11:43.198Z,17.80
2022-08-11T06:14:13.472Z,17.90
2022-08-11T06:16:42.816Z,18.20
2022-08-11T06:19:10.730Z,18.20
2022-08-11T06:21:38.565Z,18.30
2022-08-11T06:24:12.573Z,18.40
2022-08-11T06:27:09.111Z,18.60
2022-08-11T06:29:47.684Z,18.70
2022-08-11T06:32:16.097Z,19.10
2022-08-11T06:35:48.360Z,19.40
2022-08-11T06:39:05.312Z,19.60
2022-08-11T06:41:45.371Z,19.80
2022-08-11T06:44:29.465Z,20.00
2022-08-11T06:47:04.493Z,20.20
2022-08-11T06:50:07.205Z,20.20
2022-08-11T06:52:47.006Z,20.40
2022-08-11T06:55:55.501Z,20.50
2022-08-11T06:58:50.523Z,20.40
2022-08-11T07:01:45.145Z,20.50
2022-08-11T07:04:23.457Z,20.70
2022-08-11T07:07:51.020Z,20.70
2022-08-11T07:11:03.148Z,20.80
2022-08-11T07:13:51.645Z,20.90
2022-08-11T07:16:26.674Z,21.00
2022-08-11T07:19:19.900Z,21.10
2022-08-11T07:22:06.667Z,21.20
2022-08-11T07:25:03.001Z,21.20
2022-08-11T07:28:00.452Z,21.30
2022-08-11T07:30:27.991Z,21.60
2022-08-11T07:33:00.904Z,21.60
2022-08-11T07:35:35.106Z,21.90
2022-08-11T07:38:08.005Z,21.80
2022-08-11T07:40:36.643Z,21.90
2022-08-11T07:43:07.081Z,22.00
2022-08-11T07:45:53.390Z,22.10
2022-08-11T07:48:39.390Z,22.20
2022-08-11T07:51:25.187Z,22.10
2022-08-11T07:53:58.459Z,22.10
2022-08-11T07:56:39.599Z,22.30
2022-08-11T08:00:03.285Z,22.30
2022-08-11T08:02:59.266Z,22.50
2022-08-11T08:05:45.433Z,22.60
2022-08-11T08:08:33.372Z,22.50
2022-08-11T08:11:27.062Z,22.90
2022-08-11T08:14:14.346Z,23.10
2022-08-11T08:17:00.874Z,23.30
2022-08-11T08:19:28.595Z,23.20
2022-08-11T08:22:04.323Z,23.20
2022-08-11T08:24:44.093Z,23.50
2022-08-11T08:27:13.839Z,23.80
2022-08-11T08:30:14.972Z,23.60
2022-08-11T08:32:43.644Z,23.70
2022-08-11T08:35:12.102Z,23.90
2022-08-11T08:37:46.026Z,23.80
2022-08-11T08:40:15.092Z,24.00
2022-08-11T08:42:56.012Z,24.10
2022-08-11T08:45:24.761Z,24.10
2022-08-11T08:48:03.937Z,24.20
2022-08-11T08:50:53.998Z,24.30
2022-08-11T08:53:23.650Z,24.60
2022-08-11T08:55:52.566Z,24.80
2022-08-11T08:58:21.917Z,25.00
2022-08-11T09:00:52.542Z,24.90
2022-08-11T09:06:07.663Z,25.30
2022-08-11T09:08:35.267Z,25.40
2022-08-11T09:11:24.606Z,25.40
2022-08-11T09:14:04.941Z,25.70
2022-08-11T09:16:36.904Z,25.60
2022-08-11T09:19:04.510Z,25.80
2022-08-11T09:21:39.365Z,25.70
2022-08-11T09:24:36.913Z,26.10
2022-08-11T09:27:08.601Z,26.20
2022-08-11T09:29:38.091Z,26.20
2022-08-11T09:32:07.331Z,26.40
2022-08-11T09:34:36.725Z,26.90
2022-08-11T09:37:28.341Z,27.00
2022-08-11T09:40:33.464Z,26.60
2022-08-11T09:43:25.788Z,26.60
2022-08-11T09:45:54.277Z,26.90
2022-08-11T09:48:23.698Z,26.90
2022-08-11T09:50:54.204Z,26.40
2022-08-11T09:53:37.504Z,26.60
2022-08-11T09:56:30.379Z,27.00
2022-08-11T09:58:58.818Z,27.50
2022-08-11T10:01:31.224Z,27.60
2022-08-11T10:04:09.977Z,27.60
2022-08-11T10:06:58.313Z,27.90
2022-08-11T10:09:26.567Z,28.10
2022-08-11T10:11:58.548Z,27.60
2022-08-11T10:14:47.107Z,27.40
2022-08-11T10:17:16.039Z,27.90
2022-08-11T10:19:45.468Z,27.60
2022-08-11T10:22:51.315Z,27.70
2022-08-11T10:25:37.300Z,28.20
2022-08-11T10:28:28.458Z,28.70
2022-08-11T10:31:14.846Z,28.40
2022-08-11T10:34:01.622Z,28.90
2022-08-11T10:36:45.777Z,29.00
2022-08-11T10:39:18.070Z,29.60
2022-08-11T10:42:09.540Z,29.80
2022-08-11T10:44:41.538Z,29.40
2022-08-11T10:47:30.441Z,28.20
2022-08-11T10:50:17.037Z,28.10
2022-08-11T10:53:07.265Z,29.30
2022-08-11T10:55:58.594Z,29.60
2022-08-11T10:58:45.393Z,29.80
2022-08-11T11:01:14.794Z,30.30
2022-08-11T11:03:43.109Z,29.70
2022-08-11T11:06:30.643Z,29.30
2022-08-11T11:09:07.251Z,30.30
2022-08-11T11:11:57.047Z,30.80
2022-08-11T11:14:49.749Z,30.80
2022-08-11T11:17:48.916Z,29.50
2022-08-11T11:20:37.038Z,30.20
2022-08-11T11:23:47.477Z,30.20
2022-08-11T11:26:56.343Z,30.40
2022-08-11T11:30:00.624Z,30.80
2022-08-11T11:33:24.558Z,31.00
2022-08-11T11:36:37.407Z,30.70
2022-08-11T11:39:05.966Z,30.70
2022-08-11T11:41:33.304Z,31.10
2022-08-11T11:44:01.654Z,30.30
2022-08-11T11:46:30.575Z,31.30
2022-08-11T11:49:00.376Z,31.50
2022-08-11T11:51:28.330Z,30.50
2022-08-11T11:53:55.929Z,31.20
2022-08-11T11:56:25.838Z,32.00
2022-08-11T11:59:12.730Z,32.90
2022-08-11T12:01:47.041Z,32.70
2022-08-11T12:04:20.388Z,32.30
2022-08-11T12:06:47.923Z,32.70
2022-08-11T12:09:18.515Z,33.40
2022-08-11T12:12:04.095Z,32.60
2022-08-11T12:14:31.687Z,32.80
2022-08-11T12:16:59.573Z,33.00
2022-08-11T12:19:35.848Z,32.80
2022-08-11T12:22:21.884Z,33.90
2022-08-11T12:25:07.774Z,33.30
2022-08-11T12:27:36.502Z,32.80
2022-08-11T12:30:08.584Z,32.80
2022-08-11T12:32:38.396Z,32.50
2022-08-11T12:35:07.044Z,33.40
2022-08-11T12:37:50.773Z,32.70
2022-08-11T12:41:14.826Z,31.90
2022-08-11T12:43:56.995Z,32.10
2022-08-11T12:46:29.359Z,32.10
2022-08-11T12:49:23.517Z,31.00
2022-08-11T12:52:12.897Z,32.00
2022-08-11T12:55:13.774Z,32.10
2022-08-11T12:58:05.950Z,33.70
2022-08-11T13:00:52.752Z,34.00
2022-08-11T13:03:39.432Z,34.60
2022-08-11T13:06:07.874Z,34.20
2022-08-11T13:08:39.277Z,33.60
2022-08-11T13:11:54.522Z,34.20
2022-08-11T13:14:15.276Z,34.20
2022-08-11T13:17:03.349Z,33.30
2022-08-11T13:19:31.886Z,32.60
2022-08-11T13:22:00.931Z,33.30
2022-08-11T13:24:29.399Z,34.40
2022-08-11T13:26:58.016Z,34.50
2022-08-11T13:29:27.971Z,33.60
2022-08-11T13:31:58.509Z,33.40
2022-08-11T13:34:28.900Z,33.30
2022-08-11T13:37:00.257Z,34.10
2022-08-11T13:39:30.539Z,33.90
2022-08-11T13:41:59.650Z,34.40
2022-08-11T13:44:30.145Z,34.50
2022-08-11T13:47:04.407Z,34.60
2022-08-11T13:49:35.855Z,34.90
2022-08-11T13:52:04.600Z,34.30
2022-08-11T13:54:35.457Z,34.10
2022-08-11T13:57:09.383Z,34.20
2022-08-11T13:59:51.806Z,34.80
2022-08-11T14:02:29.573Z,34.10
2022-08-11T14:05:10.287Z,34.00
2022-08-11T14:07:42.101Z,34.80
2022-08-11T14:10:11.461Z,35.00
2022-08-11T14:12:59.623Z,33.70
2022-08-11T14:15:34.026Z,35.10
2022-08-11T14:18:19.132Z,35.40
2022-08-11T14:21:10.994Z,35.40
2022-08-11T14:23:42.174Z,34.40
2022-08-11T14:26:24.431Z,35.10
2022-08-11T14:28:59.885Z,35.20
2022-08-11T14:31:33.730Z,35.40
2022-08-11T14:34:10.649Z,35.70
2022-08-11T14:36:47.244Z,34.90
2022-08-11T14:39:18.426Z,35.20
2022-08-11T14:42:23.240Z,34.20
2022-08-11T14:45:23.350Z,34.20
2022-08-11T14:47:54.820Z,34.60
2022-08-11T14:50:27.203Z,34.80
2022-08-11T14:53:01.003Z,35.10
2022-08-11T14:55:48.678Z,34.90
2022-08-11T14:58:18.623Z,34.30
2022-08-11T15:00:46.872Z,34.80
2022-08-11T15:03:15.442Z,35.30
2022-08-11T15:05:56.318Z,35.60
2022-08-11T15:08:56.749Z,36.00
2022-08-11T15:11:49.164Z,34.40
2022-08-11T15:14:37.115Z,33.70
2022-08-11T15:17:09.992Z,33.80
2022-08-11T15:20:01.228Z,34.10
2022-08-11T15:22:47.056Z,34.00
2022-08-11T15:25:14.583Z,34.30
2022-08-11T15:28:03.558Z,34.10
2022-08-11T15:30:49.657Z,34.00
2022-08-11T15:33:37.278Z,34.50
2022-08-11T15:36:27.548Z,34.10
2022-08-11T15:39:00.985Z,34.00
2022-08-11T15:42:00.379Z,35.10
2022-08-11T15:45:02.733Z,34.80
2022-08-11T15:47:41.658Z,34.60
2022-08-11T15:50:15.267Z,34.40
2022-08-11T15:52:56.281Z,34.80
2022-08-11T15:55:24.525Z,35.40
2022-08-11T15:58:14.061Z,35.20
2022-08-11T16:01:04.222Z,35.20
2022-08-11T16:04:07.174Z,36.70
2022-08-11T16:06:47.688Z,37.50
2022-08-11T16:09:21.258Z,35.60
2022-08-11T16:11:49.696Z,35.50
2022-08-11T16:14:37.716Z,35.70
2022-08-11T16:17:07.204Z,36.60
2022-08-11T16:19:36.941Z,36.80
2022-08-11T16:22:08.179Z,36.50
2022-08-11T16:27:03.157Z,35.50
2022-08-11T16:27:27.062Z,35.10
2022-08-11T16:29:56.237Z,35.70
2022-08-11T16:32:25.822Z,36.20
2022-08-11T16:35:16.300Z,36.80
2022-08-11T16:38:03.510Z,35.70
2022-08-11T16:40:31.669Z,35.80
2022-08-11T16:43:18.472Z,35.70
2022-08-11T16:46:05.806Z,36.20
2022-08-11T16:48:38.188Z,36.00
2022-08-11T16:51:12.225Z,35.40
2022-08-11T16:54:00.264Z,34.80
2022-08-11T16:56:44.085Z,34.20
2022-08-11T16:59:26.490Z,34.20
2022-08-11T17:02:01.119Z,34.00
2022-08-11T17:05:08.746Z,34.70
2022-08-11T17:07:58.181Z,33.90
2022-08-11T17:11:04.015Z,33.00
2022-08-11T17:13:59.254Z,32.60
2022-08-11T17:16:35.723Z,32.00
2022-08-11T17:20:41.171Z,31.90
2022-08-11T17:22:28.487Z,31.40
2022-08-11T17:24:56.851Z,31.30
2022-08-11T17:27:24.859Z,31.90
2022-08-11T17:29:56.220Z,31.70
2022-08-11T17:33:05.979Z,30.80
2022-08-11T17:35:38.970Z,30.10
2022-08-11T17:38:16.660Z,29.40
2022-08-11T17:41:05.729Z,29.50
2022-08-11T17:43:52.784Z,29.30
2022-08-11T17:46:38.639Z,29.50
2022-08-11T17:49:08.228Z,29.50
2022-08-11T17:51:55.851Z,29.30
2022-08-11T17:54:42.879Z,29.30
2022-08-11T17:57:30.158Z,28.90
2022-08-11T17:59:58.684Z,28.60
2022-08-11T18:03:03.745Z,28.50
2022-08-11T18:05:34.089Z,28.20
2022-08-11T18:08:26.734Z,28.00
2022-08-11T18:11:17.243Z,27.80
2022-08-11T18:14:24.266Z,27.50
2022-08-11T18:17:10.188Z,27.00
2022-08-11T18:19:56.204Z,26.90
2022-08-11T18:22:47.092Z,26.60
2022-08-11T18:25:50.861Z,26.30
2022-08-11T18:28:43.420Z,26.10
2022-08-11T18:31:32.349Z,25.90
2022-08-11T18:34:23.009Z,25.60
2022-08-11T18:37:23.876Z,25.40
2022-08-11T18:40:20.494Z,25.10
2022-08-11T18:43:07.859Z,25.00
2022-08-11T18:46:06.484Z,24.90
2022-08-11T18:48:56.509Z,24.80
2022-08-11T18:51:44.062Z,24.60
2022-08-11T18:54:31.814Z,24.60
2022-08-11T18:57:22.120Z,24.40
2022-08-11T19:00:11.131Z,24.20
2022-08-11T19:02:58.648Z,24.20
2022-08-11T19:06:06.128Z,24.20
2022-08-11T19:09:08.181Z,24.10
2022-08-11T19:11:55.725Z,23.90
2022-08-11T19:14:48.384Z,23.70
2022-08-11T19:17:43.498Z,23.60
2022-08-11T19:20:35.156Z,23.50
2022-08-11T19:23:22.214Z,23.50
2022-08-11T19:26:08.698Z,23.40
2022-08-11T19:28:57.334Z,23.20
2022-08-11T19:31:45.049Z,23.10
2022-08-11T19:34:37.954Z,23.10
2022-08-11T19:37:25.904Z,23.00
2022-08-11T19:40:20.474Z,23.00
2022-08-11T19:43:14.827Z,23.10
2022-08-11T19:46:11.760Z,23.00
2022-08-11T19:48:58.863Z,22.80
2022-08-11T19:51:45.541Z,22.70
2022-08-11T19:54:31.885Z,22.70
2022-08-11T19:57:19.455Z,22.60
2022-08-11T20:00:05.620Z,22.60
2022-08-11T20:02:51.257Z,22.60
2022-08-11T20:05:37.123Z,22.60
2022-08-11T20:08:25.565Z,22.50
2022-08-11T20:11:14.520Z,22.30
2022-08-11T20:14:01.872Z,22.20
2022-08-11T20:16:48.662Z,22.20
2022-08-11T20:19:54.762Z,22.20
2022-08-11T20:22:42.750Z,22.10
2022-08-11T20:25:30.351Z,22.00
2022-08-11T20:28:16.300Z,22.10
2022-08-11T20:31:04.563Z,22.00
2022-08-11T20:33:52.094Z,21.90
2022-08-11T20:36:37.743Z,21.80
2022-08-11T20:39:25.543Z,21.80
2022-08-11T20:42:12.530Z,21.80
2022-08-11T20:44:59.587Z,21.80
2022-08-11T20:47:59.588Z,21.80
2022-08-11T20:50:47.671Z,21.70
2022-08-11T20:53:39.132Z,21.70
2022-08-11T20:56:28.838Z,21.70
2022-08-11T20:59:21.621Z,21.70
2022-08-11T21:02:09.433Z,21.60
2022-08-11T21:05:00.202Z,21.50
2022-08-11T21:07:56.838Z,21.50
2022-08-11T21:10:51.593Z,21.40
2022-08-11T21:13:41.568Z,21.40
2022-08-11T21:16:31.675Z,21.40
2022-08-11T21:19:59.568Z,21.30
2022-08-11T21:22:37.042Z,21.20
2022-08-11T21:25:25.629Z,21.10
2022-08-11T21:28:15.217Z,21.00
2022-08-11T21:31:02.060Z,21.00
2022-08-11T21:33:50.088Z,21.00
2022-08-11T21:36:37.838Z,21.00
2022-08-11T21:39:25.520Z,21.10
2022-08-11T21:42:15.105Z,20.90
2022-08-11T21:45:02.545Z,20.90
2022-08-11T21:47:49.498Z,20.90
2022-08-11T21:50:47.367Z,20.90
2022-08-11T21:53:34.177Z,20.90
2022-08-11T21:56:22.166Z,20.80
2022-08-11T21:59:14.618Z,20.70
2022-08-11T22:02:01.310Z,20.70
2022-08-11T22:04:49.194Z,20.70
2022-08-11T22:07:39.496Z,20.60
2022-08-11T22:10:40.144Z,20.60
2022-08-11T22:13:27.480Z,20.60
2022-08-11T22:16:13.053Z,20.50
2022-08-11T22:18:59.065Z,20.40
2022-08-11T22:21:59.605Z,20.50
2022-08-11T22:24:51.942Z,20.40
2022-08-11T22:27:38.486Z,20.40
2022-08-11T22:30:26.427Z,20.40
2022-08-11T22:33:15.007Z,20.50
2022-08-11T22:36:02.748Z,20.50
2022-08-11T22:38:49.827Z,20.50
2022-08-11T22:41:35.800Z,20.50
2022-08-11T22:44:22.610Z,20.50
2022-08-11T22:47:10.042Z,20.60
2022-08-11T22:49:58.947Z,20.50
2022-08-11T22:52:49.662Z,20.50
2022-08-11T22:55:36.354Z,20.60
2022-08-11T22:58:22.691Z,20.60
2022-08-11T23:01:09.092Z,20.40
2022-08-11T23:03:55.606Z,20.40
2022-08-11T23:06:41.797Z,20.40
2022-08-11T23:09:27.997Z,20.40
2022-08-11T23:12:13.823Z,20.30
2022-08-11T23:14:59.892Z,20.40
2022-08-11T23:17:46.239Z,20.30
2022-08-11T23:20:44.950Z,20.30
2022-08-11T23:23:39.257Z,20.30
2022-08-11T23:26:25.877Z,20.20
2022-08-11T23:29:14.778Z,20.30
2022-08-11T23:32:00.742Z,20.30
2022-08-11T23:35:37.024Z,20.40
2022-08-11T23:37:59.802Z,20.30
2022-08-11T23:40:46.007Z,20.30
2022-08-11T23:43:43.261Z,20.30
2022-08-11T23:46:29.243Z,20.20
2022-08-11T23:49:18.407Z,20.20
2022-08-11T23:52:04.578Z,20.30
2022-08-11T23:54:52.181Z,20.30
2022-08-11T23:57:38.287Z,20.30
